sensor_id;sensor_type;location;lat;lon;timestamp;pressure;altitude;pressure_sealevel;temperature;humidity
34328;BME280;20588;48.840;10.064;2022-10-31T00:01:44;96957.84;;;8.32;nan
34328;BME280;20588;48.840;10.064;2022-10-31T00:04:10;96958.22;;;8.29;nan
34328;BME280;20588;48.840;10.064;2022-10-31T00:06:36;96971.03;;;8.29;nan
34328;BME280;20588;48.840;10.064;2022-10-31T00:09:04;96968.66;;;8.28;nan
34328;BME280;20588;48.840;10.064;2022-10-31T00:11:30;96974.59;;;8.28;nan
34328;BME280;20588;48.840;10.064;2022-10-31T00:13:58;96978.47;;;8.24;nan
34328;BME280;20588;48.840;10.064;2022-10-31T00:16:26;96970.47;;;8.13;nan
34328;BME280;20588;48.840;10.064;2022-10-31T00:19:00;96971.47;;;8.12;nan
34328;BME280;20588;48.840;10.064;2022-10-31T00:21:27;96972.97;;;8.06;nan
34328;BME280;20588;48.840;10.064;2022-10-31T00:23:54;96974.56;;;8.07;nan
34328;BME280;20588;48.840;10.064;2022-10-31T00:26:20;96971.00;;;8.08;nan
34328;BME280;20588;48.840;10.064;2022-10-31T00:28:46;96971.00;;;8.08;nan
34328;BME280;20588;48.840;10.064;2022-10-31T00:31:13;96971.00;;;8.08;nan
34328;BME280;20588;48.840;10.064;2022-10-31T00:33:40;96968.63;;;8.07;nan
34328;BME280;20588;48.840;10.064;2022-10-31T00:36:10;96973.50;;;8.02;nan
34328;BME280;20588;48.840;10.064;2022-10-31T00:38:36;96968.13;;;7.97;nan
34328;BME280;20588;48.840;10.064;2022-10-31T00:41:03;96971.22;;;7.92;nan
34328;BME280;20588;48.840;10.064;2022-10-31T00:43:29;96971.59;;;7.89;nan
34328;BME280;20588;48.840;10.064;2022-10-31T00:45:55;96969.03;;;7.89;nan
34328;BME280;20588;48.840;10.064;2022-10-31T00:48:21;96971.78;;;7.88;nan
34328;BME280;20588;48.840;10.064;2022-10-31T00:50:47;96972.59;;;7.88;nan
34328;BME280;20588;48.840;10.064;2022-10-31T00:53:13;96964.28;;;7.86;nan
34328;BME280;20588;48.840;10.064;2022-10-31T00:55:39;96963.06;;;7.82;nan
34328;BME280;20588;48.840;10.064;2022-10-31T00:58:05;96966.00;;;7.79;nan
34328;BME280;20588;48.840;10.064;2022-10-31T01:00:31;96966.16;;;7.78;nan
34328;BME280;20588;48.840;10.064;2022-10-31T01:02:57;96965.13;;;7.72;nan
34328;BME280;20588;48.840;10.064;2022-10-31T01:05:23;96972.19;;;7.70;nan
34328;BME280;20588;48.840;10.064;2022-10-31T01:07:49;96963.88;;;7.68;nan
34328;BME280;20588;48.840;10.064;2022-10-31T01:10:16;96967.44;;;7.67;nan
34328;BME280;20588;48.840;10.064;2022-10-31T01:12:46;96964.44;;;7.64;nan
34328;BME280;20588;48.840;10.064;2022-10-31T01:15:18;96958.28;;;7.58;nan
34328;BME280;20588;48.840;10.064;2022-10-31T01:17:44;96957.41;;;7.51;nan
34328;BME280;20588;48.840;10.064;2022-10-31T01:20:12;96956.16;;;7.47;nan
34328;BME280;20588;48.840;10.064;2022-10-31T01:22:38;96956.53;;;7.44;nan
34328;BME280;20588;48.840;10.064;2022-10-31T01:25:05;96968.09;;;7.40;nan
34328;BME280;20588;48.840;10.064;2022-10-31T01:27:32;96970.03;;;7.38;nan
34328;BME280;20588;48.840;10.064;2022-10-31T01:29:58;96961.78;;;7.36;nan
34328;BME280;20588;48.840;10.064;2022-10-31T01:32:24;96963.69;;;7.34;nan
34328;BME280;20588;48.840;10.064;2022-10-31T01:34:50;96963.06;;;7.32;nan
34328;BME280;20588;48.840;10.064;2022-10-31T01:37:16;96958.13;;;7.30;nan
34328;BME280;20588;48.840;10.064;2022-10-31T01:39:42;96960.06;;;7.28;nan
34328;BME280;20588;48.840;10.064;2022-10-31T01:42:18;96957.69;;;7.27;nan
34328;BME280;20588;48.840;10.064;2022-10-31T01:47:19;96950.00;;;7.27;nan
34328;BME280;20588;48.840;10.064;2022-10-31T01:49:51;96955.94;;;7.27;nan
34328;BME280;20588;48.840;10.064;2022-10-31T01:52:38;96957.69;;;7.27;nan
34328;BME280;20588;48.840;10.064;2022-10-31T01:55:28;96951.34;;;7.23;nan
34328;BME280;20588;48.840;10.064;2022-10-31T01:57:59;96952.69;;;7.19;nan
34328;BME280;20588;48.840;10.064;2022-10-31T02:00:27;96947.31;;;7.14;nan
34328;BME280;20588;48.840;10.064;2022-10-31T02:02:53;96949.59;;;7.09;nan
34328;BME280;20588;48.840;10.064;2022-10-31T02:05:25;96949.75;;;7.07;nan
34328;BME280;20588;48.840;10.064;2022-10-31T02:07:53;96949.34;;;7.04;nan
34328;BME280;20588;48.840;10.064;2022-10-31T02:10:22;96944.59;;;7.01;nan
34328;BME280;20588;48.840;10.064;2022-10-31T02:12:50;96946.50;;;6.99;nan
34328;BME280;20588;48.840;10.064;2022-10-31T02:15:18;96941.56;;;6.97;nan
34328;BME280;20588;48.840;10.064;2022-10-31T02:17:44;96933.09;;;6.97;nan
34328;BME280;20588;48.840;10.064;2022-10-31T02:20:22;96936.81;;;6.94;nan
34328;BME280;20588;48.840;10.064;2022-10-31T02:23:03;96930.13;;;6.93;nan
34328;BME280;20588;48.840;10.064;2022-10-31T02:28:52;96931.41;;;6.89;nan
34328;BME280;20588;48.840;10.064;2022-10-31T02:37:48;96925.44;;;6.82;nan
34328;BME280;20588;48.840;10.064;2022-10-31T02:40:35;96929.91;;;6.80;nan
34328;BME280;20588;48.840;10.064;2022-10-31T02:43:13;96924.56;;;6.75;nan
34328;BME280;20588;48.840;10.064;2022-10-31T02:46:02;96928.88;;;6.75;nan
34328;BME280;20588;48.840;10.064;2022-10-31T02:48:32;96924.91;;;6.72;nan
34328;BME280;20588;48.840;10.064;2022-10-31T02:51:02;96928.59;;;6.70;nan
34328;BME280;20588;48.840;10.064;2022-10-31T02:53:35;96931.16;;;6.70;nan
34328;BME280;20588;48.840;10.064;2022-10-31T02:56:15;96926.38;;;6.67;nan
34328;BME280;20588;48.840;10.064;2022-10-31T02:59:01;96928.34;;;6.65;nan
34328;BME280;20588;48.840;10.064;2022-10-31T03:01:45;96929.66;;;6.61;nan
34328;BME280;20588;48.840;10.064;2022-10-31T03:04:20;96931.44;;;6.60;nan
34328;BME280;20588;48.840;10.064;2022-10-31T03:07:03;96929.66;;;6.61;nan
34328;BME280;20588;48.840;10.064;2022-10-31T03:15:14;96934.41;;;6.64;nan
34328;BME280;20588;48.840;10.064;2022-10-31T03:17:52;96926.75;;;6.64;nan
34328;BME280;20588;48.840;10.064;2022-10-31T03:23:28;96927.72;;;6.63;nan
34328;BME280;20588;48.840;10.064;2022-10-31T03:25:55;96925.16;;;6.63;nan
34328;BME280;20588;48.840;10.064;2022-10-31T03:28:28;96930.28;;;6.63;nan
34328;BME280;20588;48.840;10.064;2022-10-31T03:30:57;96930.44;;;6.61;nan
34328;BME280;20588;48.840;10.064;2022-10-31T03:33:31;96932.19;;;6.61;nan
34328;BME280;20588;48.840;10.064;2022-10-31T03:36:02;96938.28;;;6.60;nan
34328;BME280;20588;48.840;10.064;2022-10-31T03:38:30;96935.28;;;6.56;nan
34328;BME280;20588;48.840;10.064;2022-10-31T03:40:58;96931.91;;;6.56;nan
34328;BME280;20588;48.840;10.064;2022-10-31T03:43:30;96938.00;;;6.55;nan
34328;BME280;20588;48.840;10.064;2022-10-31T03:45:58;96929.88;;;6.51;nan
34328;BME280;20588;48.840;10.064;2022-10-31T03:48:25;96928.47;;;6.49;nan
34328;BME280;20588;48.840;10.064;2022-10-31T03:50:59;96930.25;;;6.48;nan
34328;BME280;20588;48.840;10.064;2022-10-31T03:53:37;96937.91;;;6.48;nan
34328;BME280;20588;48.840;10.064;2022-10-31T03:56:12;96938.88;;;6.47;nan
34328;BME280;20588;48.840;10.064;2022-10-31T03:58:55;96937.31;;;6.46;nan
34328;BME280;20588;48.840;10.064;2022-10-31T04:01:25;96945.75;;;6.47;nan
34328;BME280;20588;48.840;10.064;2022-10-31T04:03:52;96937.13;;;6.48;nan
34328;BME280;20588;48.840;10.064;2022-10-31T04:06:19;96936.31;;;6.47;nan
34328;BME280;20588;48.840;10.064;2022-10-31T04:08:56;96934.56;;;6.48;nan
34328;BME280;20588;48.840;10.064;2022-10-31T04:11:28;96930.41;;;6.47;nan
34328;BME280;20588;48.840;10.064;2022-10-31T04:13:57;96930.41;;;6.47;nan
34328;BME280;20588;48.840;10.064;2022-10-31T04:16:25;96929.63;;;6.46;nan
34328;BME280;20588;48.840;10.064;2022-10-31T04:18:52;96930.41;;;6.47;nan
34328;BME280;20588;48.840;10.064;2022-10-31T04:21:18;96925.28;;;6.47;nan
34328;BME280;20588;48.840;10.064;2022-10-31T04:23:44;96926.91;;;6.48;nan
34328;BME280;20588;48.840;10.064;2022-10-31T04:26:12;96928.47;;;6.49;nan
34328;BME280;20588;48.840;10.064;2022-10-31T04:28:38;96935.53;;;6.47;nan
34328;BME280;20588;48.840;10.064;2022-10-31T04:31:04;96931.38;;;6.46;nan
34328;BME280;20588;48.840;10.064;2022-10-31T04:33:31;96932.38;;;6.45;nan
34328;BME280;20588;48.840;10.064;2022-10-31T04:35:57;96929.19;;;6.43;nan
34328;BME280;20588;48.840;10.064;2022-10-31T04:38:23;96926.00;;;6.41;nan
34328;BME280;20588;48.840;10.064;2022-10-31T04:40:49;96920.28;;;6.39;nan
34328;BME280;20588;48.840;10.064;2022-10-31T04:43:15;96922.22;;;6.37;nan
34328;BME280;20588;48.840;10.064;2022-10-31T04:45:41;96922.38;;;6.35;nan
34328;BME280;20588;48.840;10.064;2022-10-31T04:48:07;96916.63;;;6.33;nan
34328;BME280;20588;48.840;10.064;2022-10-31T04:50:33;96910.94;;;6.31;nan
34328;BME280;20588;48.840;10.064;2022-10-31T04:52:59;96916.81;;;6.32;nan
34328;BME280;20588;48.840;10.064;2022-10-31T04:55:25;96911.88;;;6.30;nan
34328;BME280;20588;48.840;10.064;2022-10-31T04:57:51;96906.34;;;6.27;nan
34328;BME280;20588;48.840;10.064;2022-10-31T05:00:19;96904.56;;;6.27;nan
34328;BME280;20588;48.840;10.064;2022-10-31T05:02:50;96908.09;;;6.26;nan
34328;BME280;20588;48.840;10.064;2022-10-31T05:05:18;96905.53;;;6.26;nan
34328;BME280;20588;48.840;10.064;2022-10-31T05:07:46;96907.63;;;6.23;nan
34328;BME280;20588;48.840;10.064;2022-10-31T05:10:15;96901.91;;;6.21;nan
34328;BME280;20588;48.840;10.064;2022-10-31T05:12:49;96901.91;;;6.21;nan
34328;BME280;20588;48.840;10.064;2022-10-31T05:15:15;96901.47;;;6.17;nan
34328;BME280;20588;48.840;10.064;2022-10-31T05:17:42;96904.38;;;6.14;nan
34328;BME280;20588;48.840;10.064;2022-10-31T05:20:09;96904.53;;;6.13;nan
34328;BME280;20588;48.840;10.064;2022-10-31T05:22:36;96898.03;;;6.10;nan
34328;BME280;20588;48.840;10.064;2022-10-31T05:25:02;96899.13;;;6.08;nan
34328;BME280;20588;48.840;10.064;2022-10-31T05:27:28;96894.03;;;6.08;nan
34328;BME280;20588;48.840;10.064;2022-10-31T05:29:54;96891.66;;;6.06;nan
34328;BME280;20588;48.840;10.064;2022-10-31T05:32:20;96894.22;;;6.06;nan
34328;BME280;20588;48.840;10.064;2022-10-31T05:34:46;96887.34;;;6.07;nan
34328;BME280;20588;48.840;10.064;2022-10-31T05:37:12;96898.38;;;6.07;nan
34328;BME280;20588;48.840;10.064;2022-10-31T05:39:38;96891.31;;;6.09;nan
34328;BME280;20588;48.840;10.064;2022-10-31T05:42:04;96888.94;;;6.08;nan
34328;BME280;20588;48.840;10.064;2022-10-31T05:44:30;96879.69;;;6.07;nan
34328;BME280;20588;48.840;10.064;2022-10-31T05:46:56;96879.69;;;6.07;nan
34328;BME280;20588;48.840;10.064;2022-10-31T05:49:22;96879.69;;;6.07;nan
34328;BME280;20588;48.840;10.064;2022-10-31T05:51:48;96881.44;;;6.06;nan
34328;BME280;20588;48.840;10.064;2022-10-31T05:54:14;96875.56;;;6.06;nan
34328;BME280;20588;48.840;10.064;2022-10-31T05:56:40;96877.31;;;6.05;nan
34328;BME280;20588;48.840;10.064;2022-10-31T05:59:06;96874.75;;;6.05;nan
34328;BME280;20588;48.840;10.064;2022-10-31T06:01:32;96865.34;;;6.06;nan
34328;BME280;20588;48.840;10.064;2022-10-31T06:03:58;96866.91;;;6.07;nan
34328;BME280;20588;48.840;10.064;2022-10-31T06:06:24;96863.56;;;6.06;nan
34328;BME280;20588;48.840;10.064;2022-10-31T06:08:51;96858.91;;;6.10;nan
34328;BME280;20588;48.840;10.064;2022-10-31T06:11:17;96869.59;;;6.13;nan
34328;BME280;20588;48.840;10.064;2022-10-31T06:13:43;96869.66;;;6.20;nan
34328;BME280;20588;48.840;10.064;2022-10-31T06:16:09;96868.97;;;6.26;nan
34328;BME280;20588;48.840;10.064;2022-10-31T06:18:35;96870.81;;;6.32;nan
34328;BME280;20588;48.840;10.064;2022-10-31T06:21:01;96867.13;;;6.34;nan
34328;BME280;20588;48.840;10.064;2022-10-31T06:23:28;96869.00;;;6.40;nan
34328;BME280;20588;48.840;10.064;2022-10-31T06:25:54;96865.13;;;6.44;nan
34328;BME280;20588;48.840;10.064;2022-10-31T06:28:21;96868.72;;;6.50;nan
34328;BME280;20588;48.840;10.064;2022-10-31T06:30:47;96869.97;;;6.54;nan
34328;BME280;20588;48.840;10.064;2022-10-31T06:33:13;96869.63;;;6.57;nan
34328;BME280;20588;48.840;10.064;2022-10-31T06:35:48;96868.28;;;6.61;nan
34328;BME280;20588;48.840;10.064;2022-10-31T06:38:14;96870.59;;;6.70;nan
34328;BME280;20588;48.840;10.064;2022-10-31T06:40:40;96866.16;;;6.79;nan
34328;BME280;20588;48.840;10.064;2022-10-31T06:43:06;96870.03;;;6.89;nan
34328;BME280;20588;48.840;10.064;2022-10-31T06:45:32;96868.19;;;6.98;nan
34328;BME280;20588;48.840;10.064;2022-10-31T06:47:58;96868.69;;;7.08;nan
34328;BME280;20588;48.840;10.064;2022-10-31T06:50:24;96869.19;;;7.18;nan
34328;BME280;20588;48.840;10.064;2022-10-31T06:52:55;96874.47;;;7.31;nan
34328;BME280;20588;48.840;10.064;2022-10-31T06:55:22;96873.22;;;7.42;nan
34328;BME280;20588;48.840;10.064;2022-10-31T06:57:59;96871.50;;;7.49;nan
34328;BME280;20588;48.840;10.064;2022-10-31T07:00:28;96877.72;;;7.61;nan
34328;BME280;20588;48.840;10.064;2022-10-31T07:02:56;96881.47;;;7.79;nan
34328;BME280;20588;48.840;10.064;2022-10-31T07:05:23;96879.88;;;7.99;nan
34328;BME280;20588;48.840;10.064;2022-10-31T07:07:53;96874.09;;;8.18;nan
34328;BME280;20588;48.840;10.064;2022-10-31T07:10:20;96875.06;;;8.38;nan
34328;BME280;20588;48.840;10.064;2022-10-31T07:12:46;96870.25;;;8.56;nan
34328;BME280;20588;48.840;10.064;2022-10-31T07:15:12;96875.69;;;8.74;nan
34328;BME280;20588;48.840;10.064;2022-10-31T07:17:38;96871.22;;;8.89;nan
34328;BME280;20588;48.840;10.064;2022-10-31T07:20:05;96870.53;;;9.08;nan
34328;BME280;20588;48.840;10.064;2022-10-31T07:22:35;96861.47;;;9.26;nan
34328;BME280;20588;48.840;10.064;2022-10-31T07:25:02;96861.34;;;9.47;nan
34328;BME280;20588;48.840;10.064;2022-10-31T07:27:28;96869.31;;;9.65;nan
34328;BME280;20588;48.840;10.064;2022-10-31T07:29:54;96867.53;;;9.85;nan
34328;BME280;20588;48.840;10.064;2022-10-31T07:32:20;96873.53;;;10.11;nan
34328;BME280;20588;48.840;10.064;2022-10-31T07:34:46;96870.16;;;10.30;nan
34328;BME280;20588;48.840;10.064;2022-10-31T07:37:12;96868.34;;;10.50;nan
34328;BME280;20588;48.840;10.064;2022-10-31T07:39:38;96870.91;;;10.70;nan
34328;BME280;20588;48.840;10.064;2022-10-31T07:42:04;96864.88;;;10.95;nan
34328;BME280;20588;48.840;10.064;2022-10-31T07:44:30;96857.84;;;11.22;nan
34328;BME280;20588;48.840;10.064;2022-10-31T07:46:56;96874.50;;;11.57;nan
34328;BME280;20588;48.840;10.064;2022-10-31T07:49:22;96868.97;;;11.91;nan
34328;BME280;20588;48.840;10.064;2022-10-31T07:51:51;96866.34;;;12.22;nan
34328;BME280;20588;48.840;10.064;2022-10-31T07:54:17;96871.66;;;12.52;nan
34328;BME280;20588;48.840;10.064;2022-10-31T07:56:43;96869.09;;;12.88;nan
34328;BME280;20588;48.840;10.064;2022-10-31T07:59:09;96871.53;;;13.19;nan
34328;BME280;20588;48.840;10.064;2022-10-31T08:01:35;96868.56;;;13.52;nan
34328;BME280;20588;48.840;10.064;2022-10-31T08:04:01;96852.25;;;13.81;nan
34328;BME280;20588;48.840;10.064;2022-10-31T08:06:27;96860.72;;;14.11;nan
34328;BME280;20588;48.840;10.064;2022-10-31T08:08:53;96857.19;;;14.35;nan
34328;BME280;20588;48.840;10.064;2022-10-31T08:11:19;96850.69;;;15.07;nan
34328;BME280;20588;48.840;10.064;2022-10-31T08:13:46;96852.28;;;16.08;nan
34328;BME280;20588;48.840;10.064;2022-10-31T08:16:12;96849.09;;;17.37;nan
34328;BME280;20588;48.840;10.064;2022-10-31T08:18:39;96846.56;;;18.59;nan
34328;BME280;20588;48.840;10.064;2022-10-31T08:21:05;96842.94;;;19.21;nan
34328;BME280;20588;48.840;10.064;2022-10-31T08:23:31;96841.78;;;19.69;nan
34328;BME280;20588;48.840;10.064;2022-10-31T08:25:57;96847.81;;;19.85;nan
34328;BME280;20588;48.840;10.064;2022-10-31T08:28:23;96837.91;;;19.87;nan
34328;BME280;20588;48.840;10.064;2022-10-31T08:30:49;96830.31;;;19.95;nan
34328;BME280;20588;48.840;10.064;2022-10-31T08:33:17;96835.06;;;20.13;nan
34328;BME280;20588;48.840;10.064;2022-10-31T08:35:44;96835.81;;;20.39;nan
34328;BME280;20588;48.840;10.064;2022-10-31T08:38:11;96831.00;;;20.86;nan
34328;BME280;20588;48.840;10.064;2022-10-31T08:40:38;96832.69;;;21.30;nan
34328;BME280;20588;48.840;10.064;2022-10-31T08:43:16;96830.47;;;21.53;nan
34328;BME280;20588;48.840;10.064;2022-10-31T08:45:44;96825.06;;;21.83;nan
34328;BME280;20588;48.840;10.064;2022-10-31T08:48:12;96829.59;;;22.11;nan
34328;BME280;20588;48.840;10.064;2022-10-31T08:50:39;96822.38;;;22.26;nan
34328;BME280;20588;48.840;10.064;2022-10-31T08:53:09;96821.69;;;22.44;nan
34328;BME280;20588;48.840;10.064;2022-10-31T08:55:37;96816.78;;;22.61;nan
34328;BME280;20588;48.840;10.064;2022-10-31T08:58:06;96810.34;;;22.77;nan
34328;BME280;20588;48.840;10.064;2022-10-31T09:00:34;96819.53;;;22.98;nan
34328;BME280;20588;48.840;10.064;2022-10-31T09:03:03;96812.19;;;23.00;nan
34328;BME280;20588;48.840;10.064;2022-10-31T09:05:29;96805.63;;;23.40;nan
34328;BME280;20588;48.840;10.064;2022-10-31T09:08:00;96805.56;;;23.64;nan
34328;BME280;20588;48.840;10.064;2022-10-31T09:10:28;96806.50;;;23.73;nan
34328;BME280;20588;48.840;10.064;2022-10-31T09:12:58;96804.88;;;23.90;nan
34328;BME280;20588;48.840;10.064;2022-10-31T09:15:25;96803.63;;;24.06;nan
34328;BME280;20588;48.840;10.064;2022-10-31T09:17:52;96800.38;;;24.28;nan
34328;BME280;20588;48.840;10.064;2022-10-31T09:20:19;96802.19;;;24.14;nan
34328;BME280;20588;48.840;10.064;2022-10-31T09:22:45;96800.75;;;24.21;nan
34328;BME280;20588;48.840;10.064;2022-10-31T09:25:11;96803.16;;;24.18;nan
34328;BME280;20588;48.840;10.064;2022-10-31T09:27:37;96795.72;;;24.38;nan
34328;BME280;20588;48.840;10.064;2022-10-31T09:30:04;96797.25;;;24.26;nan
34328;BME280;20588;48.840;10.064;2022-10-31T09:32:30;96796.97;;;23.95;nan
34328;BME280;20588;48.840;10.064;2022-10-31T09:34:56;96798.28;;;23.93;nan
34328;BME280;20588;48.840;10.064;2022-10-31T09:37:22;96791.03;;;24.35;nan
34328;BME280;20588;48.840;10.064;2022-10-31T09:39:48;96794.34;;;24.41;nan
34328;BME280;20588;48.840;10.064;2022-10-31T09:45:18;96796.34;;;24.76;nan
34328;BME280;20588;48.840;10.064;2022-10-31T09:51:00;96788.75;;;25.51;nan
34328;BME280;20588;48.840;10.064;2022-10-31T09:53:44;96798.44;;;25.99;nan
34328;BME280;20588;48.840;10.064;2022-10-31T09:56:15;96791.06;;;26.40;nan
34328;BME280;20588;48.840;10.064;2022-10-31T09:58:58;96792.88;;;26.62;nan
34328;BME280;20588;48.840;10.064;2022-10-31T10:06:47;96778.47;;;28.18;nan
34328;BME280;20588;48.840;10.064;2022-10-31T10:09:15;96781.16;;;28.93;nan
34328;BME280;20588;48.840;10.064;2022-10-31T10:14:42;96772.75;;;30.59;nan
34328;BME280;20588;48.840;10.064;2022-10-31T10:20:10;96755.88;;;32.22;nan
34328;BME280;20588;48.840;10.064;2022-10-31T10:22:48;96760.28;;;32.61;nan
34328;BME280;20588;48.840;10.064;2022-10-31T10:25:23;96757.97;;;32.91;nan
34328;BME280;20588;48.840;10.064;2022-10-31T10:28:08;96754.06;;;32.26;nan
34328;BME280;20588;48.840;10.064;2022-10-31T10:33:38;96742.19;;;32.70;nan
34328;BME280;20588;48.840;10.064;2022-10-31T10:36:06;96747.94;;;32.10;nan
34328;BME280;20588;48.840;10.064;2022-10-31T10:38:50;96749.78;;;32.68;nan
34328;BME280;20588;48.840;10.064;2022-10-31T10:41:22;96739.78;;;32.96;nan
34328;BME280;20588;48.840;10.064;2022-10-31T10:43:50;96739.63;;;32.89;nan
34328;BME280;20588;48.840;10.064;2022-10-31T10:46:23;96729.75;;;32.74;nan
34328;BME280;20588;48.840;10.064;2022-10-31T10:49:24;96731.97;;;32.72;nan
34328;BME280;20588;48.840;10.064;2022-10-31T10:59:48;96725.66;;;31.75;nan
34328;BME280;20588;48.840;10.064;2022-10-31T11:02:18;96726.31;;;31.29;nan
34328;BME280;20588;48.840;10.064;2022-10-31T11:04:52;96728.66;;;31.46;nan
34328;BME280;20588;48.840;10.064;2022-10-31T11:07:19;96715.00;;;31.32;nan
34328;BME280;20588;48.840;10.064;2022-10-31T11:09:46;96716.53;;;31.21;nan
34328;BME280;20588;48.840;10.064;2022-10-31T11:12:22;96715.47;;;30.98;nan
34328;BME280;20588;48.840;10.064;2022-10-31T11:14:56;96714.28;;;30.59;nan
34328;BME280;20588;48.840;10.064;2022-10-31T11:20:21;96713.47;;;29.90;nan
34328;BME280;20588;48.840;10.064;2022-10-31T11:22:49;96708.00;;;29.62;nan
34328;BME280;20588;48.840;10.064;2022-10-31T11:25:26;96702.16;;;29.28;nan
34328;BME280;20588;48.840;10.064;2022-10-31T11:28:09;96709.13;;;28.91;nan
34328;BME280;20588;48.840;10.064;2022-10-31T11:31:13;96691.66;;;28.32;nan
34328;BME280;20588;48.840;10.064;2022-10-31T11:33:49;96704.31;;;27.55;nan
34328;BME280;20588;48.840;10.064;2022-10-31T11:36:26;96696.66;;;27.45;nan
34328;BME280;20588;48.840;10.064;2022-10-31T11:38:53;96694.22;;;27.40;nan
34328;BME280;20588;48.840;10.064;2022-10-31T11:41:34;96691.09;;;27.38;nan
34328;BME280;20588;48.840;10.064;2022-10-31T11:47:03;96684.53;;;26.36;nan
34328;BME280;20588;48.840;10.064;2022-10-31T11:49:39;96686.97;;;26.24;nan
34328;BME280;20588;48.840;10.064;2022-10-31T11:52:22;96684.06;;;25.73;nan
34328;BME280;20588;48.840;10.064;2022-10-31T11:55:00;96684.56;;;25.18;nan
34328;BME280;20588;48.840;10.064;2022-10-31T11:57:47;96679.16;;;25.36;nan
34328;BME280;20588;48.840;10.064;2022-10-31T12:00:24;96666.41;;;25.52;nan
34328;BME280;20588;48.840;10.064;2022-10-31T12:02:51;96663.88;;;25.69;nan
34328;BME280;20588;48.840;10.064;2022-10-31T12:07:47;96670.13;;;26.03;nan
34328;BME280;20588;48.840;10.064;2022-10-31T12:10:14;96662.38;;;26.55;nan
34328;BME280;20588;48.840;10.064;2022-10-31T12:15:50;96652.81;;;26.93;nan
34328;BME280;20588;48.840;10.064;2022-10-31T12:22:06;96651.06;;;26.63;nan
34328;BME280;20588;48.840;10.064;2022-10-31T12:27:10;96645.41;;;26.47;nan
34328;BME280;20588;48.840;10.064;2022-10-31T12:38:24;96617.66;;;26.67;nan
34328;BME280;20588;48.840;10.064;2022-10-31T12:47:06;96618.75;;;25.48;nan
34328;BME280;20588;48.840;10.064;2022-10-31T12:52:39;96609.97;;;25.61;nan
34328;BME280;20588;48.840;10.064;2022-10-31T12:55:38;96607.75;;;24.89;nan
34328;BME280;20588;48.840;10.064;2022-10-31T12:58:22;96609.03;;;25.13;nan
34328;BME280;20588;48.840;10.064;2022-10-31T13:01:01;96606.41;;;25.13;nan
34328;BME280;20588;48.840;10.064;2022-10-31T13:06:09;96604.22;;;24.93;nan
34328;BME280;20588;48.840;10.064;2022-10-31T13:08:45;96598.16;;;24.70;nan
34328;BME280;20588;48.840;10.064;2022-10-31T13:11:23;96593.47;;;24.32;nan
34328;BME280;20588;48.840;10.064;2022-10-31T13:14:02;96595.88;;;24.28;nan
34328;BME280;20588;48.840;10.064;2022-10-31T13:16:49;96588.88;;;23.24;nan
34328;BME280;20588;48.840;10.064;2022-10-31T13:19:21;96593.00;;;23.44;nan
34328;BME280;20588;48.840;10.064;2022-10-31T13:21:58;96578.25;;;23.48;nan
34328;BME280;20588;48.840;10.064;2022-10-31T13:24:36;96573.03;;;23.29;nan
34328;BME280;20588;48.840;10.064;2022-10-31T13:27:15;96577.28;;;23.25;nan
34328;BME280;20588;48.840;10.064;2022-10-31T13:32:16;96566.63;;;22.66;nan
34328;BME280;20588;48.840;10.064;2022-10-31T13:34:54;96560.19;;;22.58;nan
34328;BME280;20588;48.840;10.064;2022-10-31T13:38:03;96555.91;;;22.44;nan
34328;BME280;20588;48.840;10.064;2022-10-31T13:44:12;96557.75;;;22.43;nan
34328;BME280;20588;48.840;10.064;2022-10-31T13:46:41;96554.34;;;22.24;nan
34328;BME280;20588;48.840;10.064;2022-10-31T13:49:37;96548.13;;;22.20;nan
34328;BME280;20588;48.840;10.064;2022-10-31T13:54:38;96543.75;;;21.92;nan
34328;BME280;20588;48.840;10.064;2022-10-31T13:57:18;96537.41;;;21.75;nan
34328;BME280;20588;48.840;10.064;2022-10-31T13:59:58;96535.22;;;21.58;nan
34328;BME280;20588;48.840;10.064;2022-10-31T14:02:35;96540.53;;;21.48;nan
34328;BME280;20588;48.840;10.064;2022-10-31T14:05:18;96537.72;;;21.45;nan
34328;BME280;20588;48.840;10.064;2022-10-31T14:07:47;96538.25;;;21.13;nan
34328;BME280;20588;48.840;10.064;2022-10-31T14:13:08;96542.16;;;20.82;nan
34328;BME280;20588;48.840;10.064;2022-10-31T14:15:51;96539.25;;;20.88;nan
34328;BME280;20588;48.840;10.064;2022-10-31T14:18:23;96537.47;;;20.79;nan
34328;BME280;20588;48.840;10.064;2022-10-31T14:20:50;96533.84;;;20.75;nan
34328;BME280;20588;48.840;10.064;2022-10-31T14:23:36;96538.03;;;20.76;nan
34328;BME280;20588;48.840;10.064;2022-10-31T14:28:56;96520.28;;;20.68;nan
34328;BME280;20588;48.840;10.064;2022-10-31T14:31:42;96509.34;;;20.66;nan
34328;BME280;20588;48.840;10.064;2022-10-31T14:34:27;96514.78;;;20.69;nan
34328;BME280;20588;48.840;10.064;2022-10-31T14:39:48;96500.97;;;20.64;nan
34328;BME280;20588;48.840;10.064;2022-10-31T14:48:10;96516.91;;;21.01;nan
34328;BME280;20588;48.840;10.064;2022-10-31T14:50:48;96507.06;;;21.16;nan
34328;BME280;20588;48.840;10.064;2022-10-31T14:53:24;96503.88;;;20.96;nan
34328;BME280;20588;48.840;10.064;2022-10-31T14:55:53;96507.56;;;20.90;nan
34328;BME280;20588;48.840;10.064;2022-10-31T15:00:57;96500.94;;;21.31;nan
34328;BME280;20588;48.840;10.064;2022-10-31T15:05:58;96502.78;;;21.25;nan
34328;BME280;20588;48.840;10.064;2022-10-31T15:08:37;96505.09;;;21.32;nan
34328;BME280;20588;48.840;10.064;2022-10-31T15:11:12;96503.31;;;20.99;nan
34328;BME280;20588;48.840;10.064;2022-10-31T15:13:47;96506.38;;;20.72;nan
34328;BME280;20588;48.840;10.064;2022-10-31T15:16:16;96504.81;;;20.76;nan
34328;BME280;20588;48.840;10.064;2022-10-31T15:21:18;96504.25;;;20.41;nan
34328;BME280;20588;48.840;10.064;2022-10-31T15:23:46;96511.41;;;20.25;nan
34328;BME280;20588;48.840;10.064;2022-10-31T15:26:20;96507.06;;;20.06;nan
34328;BME280;20588;48.840;10.064;2022-10-31T15:28:57;96513.44;;;19.85;nan
34328;BME280;20588;48.840;10.064;2022-10-31T15:31:24;96494.19;;;19.65;nan
34328;BME280;20588;48.840;10.064;2022-10-31T15:33:51;96498.41;;;19.46;nan